Time;durP1;ratioP1;P1;durP2;ratioP2;P2;SDS_P1;SDS_P2;PMS_P1;PMS_P2;Temp;Humidity;BMP_temperature;BMP_pressure;BME280_temperature;BME280_humidity;BME280_pressure;Samples;Min_cycle;Max_cycle;Signal;HPM_P1;HPM_P2
2021/08/13 00:00:56;;;;;;;6.80;4.03;;;;;;;22.92;65.38;99311.44;3377061;29;20074;-72
2021/08/13 00:02:37;;;;;;;8.20;4.33;;;;;;;22.87;65.38;99309.56;3377812;29;20041;-71
2021/08/13 00:04:19;;;;;;;;;;;;;;;22.89;65.64;99318.25;3379341;29;20044;-71
2021/08/13 00:06:00;;;;;;;3.47;3.17;;;;;;;22.85;65.91;99309.06;3379499;29;19926;-72
2021/08/13 00:07:41;;;;;;;4.72;3.55;;;;;;;22.84;65.39;99310.94;3379582;29;20458;-73
2021/08/13 00:09:22;;;;;;;23.60;5.90;;;;;;;22.83;65.58;99312.03;3373028;29;20040;-71
2021/08/13 00:11:02;;;;;;;7.43;4.10;;;;;;;22.78;65.54;99317.53;3363078;29;20444;-74
2021/08/13 00:12:43;;;;;;;9.37;3.97;;;;;;;22.70;65.02;99320.03;3366809;29;20076;-74
2021/08/13 00:14:24;;;;;;;4.73;4.00;;;;;;;22.64;65.39;99320.09;3366892;29;20465;-72
2021/08/13 00:16:04;;;;;;;7.50;3.00;;;;;;;22.65;65.76;99324.41;3368300;29;20041;-74
2021/08/13 00:17:45;;;;;;;8.00;4.47;;;;;;;22.66;65.75;99319.78;3367334;29;20067;-71
2021/08/13 00:19:26;;;;;;;7.13;3.77;;;;;;;22.64;65.25;99324.72;3367102;29;20127;-75
2021/08/13 00:21:08;;;;;;;5.28;3.28;;;;;;;22.61;65.38;99317.94;3363801;29;20041;-72
2021/08/13 00:22:49;;;;;;;4.07;3.67;;;;;;;22.59;65.30;99314.69;3362544;29;20056;-74
2021/08/13 00:24:30;;;;;;;4.28;3.15;;;;;;;22.57;65.59;99319.59;3363675;29;20041;-73
2021/08/13 00:26:11;;;;;;;3.90;3.53;;;;;;;22.60;65.75;99318.22;3363714;29;20421;-70
2021/08/13 00:27:52;;;;;;;5.23;3.60;;;;;;;22.60;65.63;99321.72;3363871;29;20132;-72
2021/08/13 00:29:34;;;;;;;4.78;2.97;;;;;;;22.63;65.29;99320.34;3364737;29;20048;-74
2021/08/13 00:31:26;;;;;;;13.77;4.13;;;;;;;22.59;64.88;99313.88;3363652;29;20052;-73
2021/08/13 00:33:07;;;;;;;4.80;3.65;;;;;;;22.59;65.05;99319.31;3362800;29;20045;-72
2021/08/13 00:34:48;;;;;;;5.10;3.10;;;;;;;22.59;65.25;99311.16;3362569;29;20135;-72
2021/08/13 00:36:30;;;;;;;4.80;3.60;;;;;;;22.55;65.21;99310.91;3369664;29;20504;-72
2021/08/13 00:38:12;;;;;;;5.53;3.35;;;;;;;22.53;64.99;99321.22;3374329;29;20057;-69
2021/08/13 00:39:54;;;;;;;5.85;3.72;;;;;;;22.52;65.17;99318.81;3364081;29;20037;-71
2021/08/13 00:41:34;;;;;;;6.30;2.93;;;;;;;22.51;65.36;99318.00;3364328;29;20048;-73
2021/08/13 00:43:16;;;;;;;4.00;3.15;;;;;;;22.53;65.44;99313.09;3362551;29;20053;-73
2021/08/13 00:44:57;;;;;;;4.63;3.53;;;;;;;22.54;65.28;99317.44;3360227;29;20454;-73
2021/08/13 00:46:38;;;;;;;7.53;3.13;;;;;;;22.54;65.05;99312.00;3363410;29;20067;-72
2021/08/13 00:48:26;;;;;;;5.13;3.00;;;;;;;22.52;65.27;99314.19;3367949;29;20520;-73
2021/08/13 00:50:22;;;;;;;4.80;3.38;;;;;;;22.51;65.47;99312.59;3370855;29;20143;-74
2021/08/13 00:52:08;;;;;;;3.30;3.00;;;;;;;22.52;65.47;99314.19;3351997;29;20490;-73
2021/08/13 00:53:50;;;;;;;6.55;3.35;;;;;;;22.50;65.00;99305.50;3358357;29;20049;-72
2021/08/13 00:55:31;;;;;;;3.15;2.83;;;;;;;22.48;64.90;99307.69;3360211;29;20049;-72
2021/08/13 00:57:18;;;;;;;4.32;2.97;;;;;;;22.40;64.76;99311.00;3360658;29;20057;-74
2021/08/13 00:59:25;;;;;;;4.20;2.83;;;;;;;22.35;65.01;99311.03;3374879;29;20044;-74
2021/08/13 01:01:15;;;;;;;7.13;3.30;;;;;;;22.29;65.06;99307.56;3349770;29;20588;-73
2021/08/13 01:02:56;;;;;;;6.95;3.30;;;;;;;22.27;65.17;99300.78;3356865;29;20052;-73
2021/08/13 01:04:39;;;;;;;4.45;3.47;;;;;;;22.21;64.79;99303.53;3347346;29;20049;-73
2021/08/13 01:06:29;;;;;;;4.60;2.63;;;;;;;22.19;65.21;99303.00;3372438;29;20055;-73
2021/08/13 01:08:09;;;;;;;7.17;2.67;;;;;;;22.24;65.17;99301.34;3365454;29;20044;-70
2021/08/13 01:09:51;;;;;;;3.78;2.80;;;;;;;22.22;64.74;99304.34;3373067;29;20044;-73
2021/08/13 01:11:52;;;;;;;6.63;3.83;;;;;;;22.20;64.70;99296.50;3354909;29;20072;-74
2021/08/13 01:13:59;;;;;;;4.93;3.20;;;;;;;22.16;65.16;99289.94;3373191;29;20139;-73
2021/08/13 01:15:46;;;;;;;9.07;2.83;;;;;;;22.17;65.21;99302.41;3366568;29;20104;-70
2021/08/13 01:17:29;;;;;;;5.22;2.65;;;;;;;22.15;64.89;99296.50;3373155;29;20465;-74
2021/08/13 01:19:37;;;;;;;2.92;2.58;;;;;;;22.16;64.92;99297.28;3374890;29;20186;-76
2021/08/13 01:21:25;;;;;;;3.55;2.80;;;;;;;22.12;65.21;99288.06;3362129;29;20478;-72
2021/08/13 01:23:12;;;;;;;6.90;3.47;;;;;;;22.10;64.80;99301.13;3371196;29;20123;-75
2021/08/13 01:24:54;;;;;;;7.38;4.03;;;;;;;22.08;65.02;99303.31;3362918;29;20048;-73
2021/08/13 01:26:41;;;;;;;4.53;3.15;;;;;;;22.03;64.87;99300.63;3360642;29;20041;-73
2021/08/13 01:28:46;;;;;;;7.47;3.92;;;;;;;22.03;65.42;99306.84;3362586;29;20523;-74
2021/08/13 01:30:29;;;;;;;2.70;2.50;;;;;;;22.00;65.32;99302.81;3364740;29;20131;-71
2021/08/13 01:32:15;;;;;;;4.07;2.90;;;;;;;22.06;65.43;99300.88;3349776;29;20421;-76
2021/08/13 01:34:01;;;;;;;7.50;3.28;;;;;;;22.06;64.82;99310.91;3362254;29;20057;-73
2021/08/13 01:35:46;;;;;;;6.88;2.75;;;;;;;22.04;64.96;99308.47;3349554;29;20413;-74
2021/08/13 01:37:29;;;;;;;3.90;2.90;;;;;;;22.03;64.97;99323.16;3360660;29;20068;-73
2021/08/13 01:39:16;;;;;;;3.47;3.00;;;;;;;22.04;64.74;99316.63;3369466;29;20045;-73
2021/08/13 01:41:00;;;;;;;;;;;;;;;22.10;64.84;99317.41;3362607;29;20045;-70
2021/08/13 01:42:44;;;;;;;4.32;2.70;;;;;;;22.06;64.60;99319.88;3376619;29;19988;-72
2021/08/13 01:44:27;;;;;;;5.30;3.60;;;;;;;22.02;64.25;99328.84;3355702;29;20045;-73
2021/08/13 01:46:08;;;;;;;5.33;3.00;;;;;;;21.90;64.42;99329.19;3363095;29;20048;-75
2021/08/13 01:47:55;;;;;;;4.38;2.88;;;;;;;21.87;64.76;99338.69;3351851;29;20416;-76
2021/08/13 01:49:38;;;;;;;3.95;2.70;;;;;;;21.88;64.76;99331.34;3371294;29;20516;-75
2021/08/13 01:51:19;;;;;;;3.23;2.70;;;;;;;21.91;64.36;99336.22;3377626;29;20059;-74
2021/08/13 01:53:03;;;;;;;4.82;2.65;;;;;;;21.90;64.23;99335.41;3375421;29;20293;-76
2021/08/13 01:54:44;;;;;;;5.38;3.38;;;;;;;21.92;64.28;99337.88;3357377;29;20045;-75
2021/08/13 01:56:26;;;;;;;6.28;3.15;;;;;;;21.92;64.37;99343.28;3349117;29;20175;-76
2021/08/13 01:58:08;;;;;;;4.38;2.42;;;;;;;21.93;64.18;99344.91;3361914;29;20045;-77
2021/08/13 01:59:50;;;;;;;4.47;2.88;;;;;;;21.90;63.98;99346.28;3370399;29;20148;-76
2021/08/13 02:01:31;;;;;;;3.35;3.03;;;;;;;21.90;64.20;99353.59;3377243;29;20543;-73
2021/08/13 02:03:14;;;;;;;4.90;3.15;;;;;;;21.88;64.38;99353.88;3364277;29;20047;-74
2021/08/13 02:04:57;;;;;;;6.10;3.38;;;;;;;21.85;63.96;99359.03;3359385;29;20132;-72
2021/08/13 02:06:38;;;;;;;4.90;3.27;;;;;;;21.84;64.13;99350.09;3375850;29;20512;-72
2021/08/13 02:08:27;;;;;;;3.78;3.42;;;;;;;21.84;63.85;99354.69;3377301;29;20097;-72
2021/08/13 02:10:11;;;;;;;3.70;3.03;;;;;;;21.86;63.95;99349.81;3361709;29;20536;-75
2021/08/13 02:11:55;;;;;;;7.90;3.53;;;;;;;21.88;63.86;99358.50;3372519;29;20529;-73
2021/08/13 02:13:37;;;;;;;3.47;3.03;;;;;;;21.89;63.58;99349.25;3364316;29;20049;-72
2021/08/13 02:15:19;;;;;;;2.67;2.47;;;;;;;21.90;63.79;99357.13;3362752;29;20556;-73
2021/08/13 02:17:01;;;;;;;;;;;;;;;21.94;63.51;99360.91;3362302;29;20089;-73
2021/08/13 02:18:49;;;;;;;5.03;2.70;;;;;;;21.86;63.14;99361.47;3351351;29;19932;-76
2021/08/13 02:20:32;;;;;;;4.57;3.13;;;;;;;21.83;63.28;99356.59;3370579;29;20048;-74
2021/08/13 02:22:14;;;;;;;5.07;3.05;;;;;;;21.81;63.13;99358.78;3361307;29;20091;-73
2021/08/13 02:23:54;;;;;;;3.97;2.83;;;;;;;21.81;62.93;99358.78;3364907;29;20071;-71
2021/08/13 02:25:39;;;;;;;3.25;2.40;;;;;;;21.78;63.13;99368.28;3376249;29;20049;-75
2021/08/13 02:27:26;;;;;;;5.18;2.55;;;;;;;21.74;63.17;99367.22;3362741;29;20045;-75
2021/08/13 02:29:07;;;;;;;3.20;2.20;;;;;;;21.69;63.06;99372.66;3372847;29;20051;-72
2021/08/13 02:30:48;;;;;;;6.57;2.40;;;;;;;21.70;62.96;99368.03;3354413;29;20037;-71
2021/08/13 02:32:29;;;;;;;3.80;2.17;;;;;;;21.66;62.77;99364.25;3361322;29;20509;-73
2021/08/13 02:34:10;;;;;;;3.13;2.57;;;;;;;21.62;63.10;99372.13;3363657;29;20096;-76
2021/08/13 02:36:05;;;;;;;7.38;2.75;;;;;;;21.62;63.14;99374.84;3376363;29;20131;-72
2021/08/13 02:37:46;;;;;;;3.75;1.90;;;;;;;21.65;63.28;99377.00;3376593;29;20060;-76
2021/08/13 02:39:39;;;;;;;2.65;2.25;;;;;;;21.68;62.91;99371.00;3377783;29;20041;-72
2021/08/13 02:41:24;;;;;;;2.63;2.17;;;;;;;21.68;62.73;99371.00;3364288;29;20049;-73
2021/08/13 02:43:10;;;;;;;3.85;2.67;;;;;;;21.65;62.41;99377.00;3361554;29;20224;-74
2021/08/13 02:44:57;;;;;;;6.65;2.67;;;;;;;21.64;62.76;99364.53;3374381;29;20124;-73
2021/08/13 02:46:44;;;;;;;3.40;1.75;;;;;;;21.63;62.72;99373.75;3361512;29;20438;-72
2021/08/13 02:48:27;;;;;;;3.60;1.92;;;;;;;21.63;62.48;99372.94;3364022;29;20055;-72
2021/08/13 02:50:09;;;;;;;6.05;2.00;;;;;;;21.62;62.59;99374.84;3355467;29;20044;-72
2021/08/13 02:51:54;;;;;;;8.07;2.13;;;;;;;21.66;62.27;99375.94;3346207;29;20133;-71
2021/08/13 02:53:39;;;;;;;3.35;1.85;;;;;;;21.67;62.50;99380.25;3371780;29;20048;-73
2021/08/13 02:55:23;;;;;;;3.10;2.50;;;;;;;21.69;62.15;99377.28;3360014;29;20041;-72
2021/08/13 02:57:04;;;;;;;2.72;1.70;;;;;;;21.66;62.31;99378.66;3372155;29;20052;-75
2021/08/13 02:58:49;;;;;;;;;;;;;;;21.68;62.20;99381.06;3361490;29;20049;-72
2021/08/13 03:00:31;;;;;;;3.38;2.20;;;;;;;21.58;62.02;99387.31;3361449;29;19991;-74
2021/08/13 03:02:13;;;;;;;3.17;1.92;;;;;;;21.56;61.73;99384.91;3361240;29;20045;-72
2021/08/13 03:03:56;;;;;;;2.33;1.90;;;;;;;21.54;61.62;99383.53;3372597;29;20071;-72
2021/08/13 03:05:44;;;;;;;3.58;2.10;;;;;;;21.53;61.57;99381.94;3362874;29;20056;-72
2021/08/13 03:07:25;;;;;;;4.40;1.60;;;;;;;21.53;61.20;99381.94;3362648;29;20097;-74
2021/08/13 03:09:06;;;;;;;2.97;1.92;;;;;;;21.51;61.15;99386.81;3376705;29;20049;-73
2021/08/13 03:10:48;;;;;;;;;;;;;;;21.53;61.43;99388.16;3357785;29;20211;-77
2021/08/13 03:12:33;;;;;;;1.98;1.83;;;;;;;21.46;61.42;99390.34;3360093;29;20067;-72
2021/08/13 03:14:14;;;;;;;5.03;2.13;;;;;;;21.41;60.74;99381.41;3359690;29;20051;-73
2021/08/13 03:15:57;;;;;;;2.05;1.58;;;;;;;21.44;60.57;99387.09;3374273;29;20077;-73
2021/08/13 03:17:44;;;;;;;2.22;2.00;;;;;;;21.45;60.70;99387.88;3363119;29;20128;-73
2021/08/13 03:19:25;;;;;;;3.17;1.67;;;;;;;21.43;60.39;99395.50;3375496;29;20064;-75
2021/08/13 03:21:08;;;;;;;2.03;1.80;;;;;;;21.38;60.61;99398.19;3376795;29;20485;-75
2021/08/13 03:22:50;;;;;;;3.83;2.00;;;;;;;21.36;60.72;99393.03;3375430;29;20423;-73
2021/08/13 03:24:32;;;;;;;1.67;1.58;;;;;;;21.35;60.38;99407.69;3363374;29;20053;-74
2021/08/13 03:26:15;;;;;;;2.20;1.75;;;;;;;21.32;60.17;99397.34;3362163;29;20139;-74
2021/08/13 03:27:56;;;;;;;1.75;1.33;;;;;;;21.32;60.43;99406.31;3360032;29;20432;-70
2021/08/13 03:29:37;;;;;;;4.13;1.80;;;;;;;21.33;59.99;99407.13;3360837;29;20049;-76
2021/08/13 03:31:37;;;;;;;3.33;2.08;;;;;;;21.38;60.29;99403.63;3370853;29;20044;-71
2021/08/13 03:33:19;;;;;;;5.18;1.73;;;;;;;21.39;60.21;99405.25;3376142;29;20064;-73
2021/08/13 03:34:59;;;;;;;3.13;1.77;;;;;;;21.42;60.11;99399.28;3377037;29;20049;-72
2021/08/13 03:36:42;;;;;;;2.67;1.48;;;;;;;21.44;59.96;99395.22;3357476;29;20049;-77
2021/08/13 03:38:24;;;;;;;3.03;1.60;;;;;;;21.47;59.81;99397.38;3348176;29;20058;-74
2021/08/13 03:40:06;;;;;;;3.33;1.50;;;;;;;21.48;59.59;99396.31;3358829;29;20040;-72
2021/08/13 03:41:49;;;;;;;3.25;1.95;;;;;;;21.48;59.71;99404.44;3362662;29;20101;-74
2021/08/13 03:43:32;;;;;;;2.97;1.80;;;;;;;21.49;59.63;99405.25;3374104;29;20076;-72
2021/08/13 03:45:13;;;;;;;2.90;1.87;;;;;;;21.49;59.85;99405.25;3366536;29;20457;-72
2021/08/13 03:46:53;;;;;;;1.50;1.40;;;;;;;21.51;59.86;99403.88;3364404;29;20040;-73
2021/08/13 03:48:34;;;;;;;3.03;1.47;;;;;;;21.51;59.73;99408.50;3364087;29;20037;-72
2021/08/13 03:50:16;;;;;;;3.10;1.73;;;;;;;21.52;59.90;99412.84;3364244;29;20055;-72
2021/08/13 03:51:57;;;;;;;4.53;2.00;;;;;;;21.55;59.73;99426.66;3363167;29;20546;-73
2021/08/13 03:53:38;;;;;;;4.10;1.52;;;;;;;21.57;59.72;99420.97;3373594;29;20060;-73
2021/08/13 03:55:19;;;;;;;2.37;1.50;;;;;;;21.55;59.58;99415.00;3366397;29;20421;-71
2021/08/13 03:57:01;;;;;;;2.08;1.73;;;;;;;21.56;59.47;99422.06;3363551;29;20149;-72
2021/08/13 03:58:43;;;;;;;3.78;1.70;;;;;;;21.55;59.11;99413.09;3360726;29;20092;-72
2021/08/13 04:00:25;;;;;;;3.17;1.85;;;;;;;21.55;59.30;99420.41;3360901;29;20045;-73
2021/08/13 04:02:06;;;;;;;1.50;1.40;;;;;;;21.54;59.34;99418.78;3361861;29;20049;-71
2021/08/13 04:03:47;;;;;;;3.23;1.50;;;;;;;21.59;59.41;99416.09;3360594;29;20533;-75
2021/08/13 04:05:30;;;;;;;3.17;1.90;;;;;;;21.60;59.25;99419.59;3364007;29;20048;-75
2021/08/13 04:07:12;;;;;;;3.60;1.60;;;;;;;21.62;59.42;99425.56;3366077;29;20516;-72
2021/08/13 04:08:53;;;;;;;2.77;1.77;;;;;;;21.64;59.13;99424.22;3373595;29;20048;-72
2021/08/13 04:10:34;;;;;;;5.97;1.43;;;;;;;21.65;59.03;99423.09;3365684;29;20074;-72
2021/08/13 04:12:15;;;;;;;1.65;1.55;;;;;;;21.64;58.97;99432.34;3374745;29;20053;-72
2021/08/13 04:13:57;;;;;;;3.03;1.75;;;;;;;21.60;58.77;99428.53;3375828;29;20452;-72
2021/08/13 04:15:40;;;;;;;3.40;1.60;;;;;;;21.54;58.55;99424.22;3373770;29;20054;-74
2021/08/13 04:17:22;;;;;;;8.35;1.85;;;;;;;21.48;58.63;99418.00;3372725;29;20040;-73
2021/08/13 04:19:03;;;;;;;3.77;1.40;;;;;;;21.46;58.49;99424.78;3374987;29;20068;-73
2021/08/13 04:20:48;;;;;;;1.70;1.48;;;;;;;21.47;58.79;99429.09;3373321;29;20116;-71
2021/08/13 04:22:31;;;;;;;3.42;1.85;;;;;;;21.52;58.18;99431.81;3349946;29;20219;-75
2021/08/13 04:24:12;;;;;;;5.23;1.63;;;;;;;21.54;58.22;99433.16;3361499;29;20037;-72
2021/08/13 04:25:52;;;;;;;3.70;1.47;;;;;;;21.56;58.23;99424.78;3363052;29;20045;-75
2021/08/13 04:27:33;;;;;;;3.87;1.70;;;;;;;21.55;58.10;99426.66;3372400;29;20052;-73
2021/08/13 04:29:14;;;;;;;4.23;1.50;;;;;;;21.55;58.07;99423.13;3378116;29;20138;-76
2021/08/13 04:30:55;;;;;;;3.65;1.50;;;;;;;21.56;57.44;99428.28;3373854;29;20052;-73
2021/08/13 04:32:37;;;;;;;2.27;1.53;;;;;;;21.60;57.54;99436.69;3373776;29;20072;-72
2021/08/13 04:34:18;;;;;;;4.75;1.92;;;;;;;21.63;57.94;99425.28;3377282;29;20135;-71
2021/08/13 04:35:59;;;;;;;2.83;1.50;;;;;;;21.69;57.79;99416.06;3377321;29;20052;-73
2021/08/13 04:37:40;;;;;;;2.55;1.83;;;;;;;21.76;57.46;99426.59;3362116;29;20055;-74
2021/08/13 04:39:21;;;;;;;3.63;1.90;;;;;;;21.73;56.93;99422.53;3370724;29;20052;-75
2021/08/13 04:41:02;;;;;;;3.50;2.20;;;;;;;21.69;56.81;99426.91;3372686;29;20104;-71
2021/08/13 04:42:42;;;;;;;5.37;1.63;;;;;;;21.60;57.50;99423.13;3372973;29;20053;-71
2021/08/13 04:44:24;;;;;;;5.43;1.95;;;;;;;21.62;57.92;99422.84;3376073;29;20547;-72
2021/08/13 04:46:07;;;;;;;8.68;2.45;;;;;;;21.62;57.75;99418.25;3375522;29;20045;-72
2021/08/13 04:47:48;;;;;;;4.50;1.97;;;;;;;21.62;57.41;99420.94;3362424;29;20501;-71
2021/08/13 04:49:30;;;;;;;7.77;2.53;;;;;;;21.49;57.12;99422.31;3360145;29;20085;-76
2021/08/13 04:51:12;;;;;;;10.25;2.22;;;;;;;21.31;57.01;99425.56;3362863;29;20055;-75
2021/08/13 04:52:53;;;;;;;18.47;2.13;;;;;;;21.15;57.11;99415.81;3362288;29;20045;-77
2021/08/13 04:54:34;;;;;;;6.80;2.23;;;;;;;21.08;57.35;99416.88;3375553;29;20041;-72
2021/08/13 04:56:17;;;;;;;4.18;2.10;;;;;;;21.00;57.49;99428.25;3371454;29;20044;-74
2021/08/13 04:57:58;;;;;;;8.77;2.28;;;;;;;20.89;57.19;99422.03;3361668;29;20052;-77
2021/08/13 04:59:38;;;;;;;2.33;1.80;;;;;;;20.81;57.51;99427.97;3352735;29;20061;-77
2021/08/13 05:01:26;;;;;;;1.88;1.52;;;;;;;20.79;57.63;99426.63;3371885;29;20040;-76
2021/08/13 05:03:07;;;;;;;4.07;1.80;;;;;;;20.77;57.70;99418.75;3376333;29;20048;-77
2021/08/13 05:04:58;;;;;;;9.13;2.00;;;;;;;20.77;57.52;99424.16;3376530;29;20053;-77
2021/08/13 05:06:39;;;;;;;3.60;2.50;;;;;;;20.70;57.33;99426.31;3379180;29;20095;-76
2021/08/13 05:08:20;;;;;;;4.83;2.00;;;;;;;20.65;57.58;99423.59;3378969;29;20075;-77
2021/08/13 05:10:09;;;;;;;3.50;1.75;;;;;;;20.62;57.47;99414.09;3376762;29;20496;-77
2021/08/13 05:11:49;;;;;;;5.93;1.92;;;;;;;20.62;57.55;99413.31;3376768;29;20081;-77
2021/08/13 05:13:31;;;;;;;3.38;2.15;;;;;;;20.59;57.48;99416.53;3376697;29;20040;-78
2021/08/13 05:15:12;;;;;;;8.33;2.73;;;;;;;20.58;57.41;99423.88;3376620;29;20208;-79
2021/08/13 05:16:54;;;;;;;12.15;2.33;;;;;;;20.60;57.56;99423.56;3365926;29;20044;-77
2021/08/13 05:18:35;;;;;;;3.90;1.90;;;;;;;20.60;57.62;99426.28;3363574;29;20053;-78
2021/08/13 05:20:17;;;;;;;9.70;2.83;;;;;;;20.58;57.22;99414.94;3362882;29;20139;-74
2021/08/13 05:22:04;;;;;;;3.45;2.10;;;;;;;20.61;57.26;99422.53;3373570;29;20048;-75
2021/08/13 05:23:45;;;;;;;3.30;2.10;;;;;;;20.65;57.05;99412.75;3375012;29;20072;-76
2021/08/13 05:25:25;;;;;;;6.67;2.30;;;;;;;20.73;56.98;99420.38;3365187;29;20054;-77
2021/08/13 05:27:06;;;;;;;7.10;1.60;;;;;;;20.73;56.88;99423.09;3371225;29;20056;-77
2021/08/13 05:28:47;;;;;;;2.53;1.80;;;;;;;20.83;56.86;99436.66;3375550;29;20096;-78
2021/08/13 05:30:39;;;;;;;3.05;1.55;;;;;;;20.89;56.89;99429.34;3375573;29;20059;-75
2021/08/13 05:32:22;;;;;;;2.97;1.60;;;;;;;20.92;56.68;99429.59;3376509;29;20076;-77
2021/08/13 05:34:03;;;;;;;7.78;2.00;;;;;;;20.97;56.90;99436.94;3379047;29;20127;-76
2021/08/13 05:35:43;;;;;;;7.50;2.10;;;;;;;20.94;57.02;99447.50;3377979;29;20048;-76
2021/08/13 05:37:24;;;;;;;4.38;1.80;;;;;;;20.89;57.09;99446.41;3371734;29;20084;-75
2021/08/13 05:39:05;;;;;;;5.30;1.70;;;;;;;20.83;57.43;99446.66;3375593;29;20048;-72
2021/08/13 05:40:49;;;;;;;9.93;2.53;;;;;;;20.80;57.78;99450.72;3375544;29;20228;-75
2021/08/13 05:42:29;;;;;;;6.05;2.25;;;;;;;20.75;58.42;99450.69;3378600;29;20049;-74
2021/08/13 05:44:11;;;;;;;9.77;2.22;;;;;;;20.78;58.79;99450.19;3377309;29;20052;-75
2021/08/13 05:45:51;;;;;;;5.63;2.20;;;;;;;20.76;59.02;99449.63;3371270;29;20587;-73
2021/08/13 05:47:34;;;;;;;12.83;3.90;;;;;;;20.73;59.11;99452.88;3374616;29;20096;-75
2021/08/13 05:49:14;;;;;;;7.28;2.13;;;;;;;20.73;59.67;99469.13;3374976;29;20052;-76
2021/08/13 05:50:55;;;;;;;11.03;2.60;;;;;;;20.76;60.06;99457.75;3378966;29;20055;-74
2021/08/13 05:52:41;;;;;;;9.35;1.85;;;;;;;20.83;59.90;99463.75;3377513;29;20138;-77
2021/08/13 05:54:22;;;;;;;7.22;2.10;;;;;;;20.83;59.57;99457.50;3375445;29;20568;-77
2021/08/13 05:56:03;;;;;;;7.33;2.13;;;;;;;20.86;59.82;99457.78;3371651;29;20041;-74
2021/08/13 05:57:45;;;;;;;9.27;2.05;;;;;;;20.91;59.73;99463.22;3371701;29;20099;-75
2021/08/13 05:59:26;;;;;;;6.05;1.73;;;;;;;20.99;59.50;99458.31;3375179;29;20052;-76
2021/08/13 06:01:07;;;;;;;12.85;2.75;;;;;;;21.06;59.28;99461.59;3371197;29;20166;-76
2021/08/13 06:02:56;;;;;;;7.43;1.93;;;;;;;21.16;59.23;99472.44;3365003;29;20564;-75
2021/08/13 06:04:38;;;;;;;6.68;1.80;;;;;;;21.23;58.98;99464.88;3365448;29;20180;-75
2021/08/13 06:06:18;;;;;;;3.38;2.10;;;;;;;21.32;58.64;99468.69;3367831;29;20615;-76
2021/08/13 06:07:59;;;;;;;11.90;2.30;;;;;;;21.42;58.82;99470.59;3377339;29;20048;-75
2021/08/13 06:09:40;;;;;;;6.17;1.77;;;;;;;21.52;58.61;99470.59;3376998;29;20488;-76
2021/08/13 06:11:21;;;;;;;4.83;2.20;;;;;;;21.55;57.99;99471.94;3364504;29;20045;-75
2021/08/13 06:13:09;;;;;;;6.25;1.77;;;;;;;21.51;57.67;99473.59;3373975;29;20048;-75
2021/08/13 06:14:50;;;;;;;3.57;1.80;;;;;;;21.46;57.49;99484.44;3378172;29;20036;-76
2021/08/13 06:16:32;;;;;;;;;;;;;;;21.45;57.86;99486.34;3376087;29;20143;-75
2021/08/13 06:18:13;;;;;;;3.22;1.40;;;;;;;21.34;57.64;99485.47;3377612;29;20387;-75
2021/08/13 06:20:04;;;;;;;3.23;1.63;;;;;;;21.26;57.90;99480.59;3374988;29;20099;-74
2021/08/13 06:21:45;;;;;;;3.08;1.83;;;;;;;21.18;58.33;99483.03;3378029;29;20330;-75
2021/08/13 06:23:26;;;;;;;8.97;2.23;;;;;;;21.16;58.58;99486.00;3367541;29;20110;-75
2021/08/13 06:25:10;;;;;;;5.40;1.60;;;;;;;21.19;58.67;99485.47;3361651;29;20041;-78
2021/08/13 06:26:51;;;;;;;3.58;1.90;;;;;;;21.21;58.57;99491.44;3361823;29;20189;-77
2021/08/13 06:28:32;;;;;;;3.47;1.67;;;;;;;21.20;58.46;99495.22;3361670;29;20450;-76
2021/08/13 06:30:19;;;;;;;1.93;1.30;;;;;;;21.16;58.50;99487.91;3377085;29;20143;-75
2021/08/13 06:31:59;;;;;;;4.07;1.80;;;;;;;21.21;58.92;99488.72;3363312;29;20117;-75
2021/08/13 06:33:40;;;;;;;3.67;1.90;;;;;;;21.28;59.00;99497.41;3358175;29;20049;-75
2021/08/13 06:35:22;;;;;;;4.97;1.85;;;;;;;21.34;59.04;99501.72;3360926;29;20489;-75
2021/08/13 06:37:03;;;;;;;5.03;1.67;;;;;;;21.42;58.88;99502.31;3361471;29;20078;-75
2021/08/13 06:38:44;;;;;;;5.90;1.53;;;;;;;21.47;58.58;99503.13;3370497;29;20036;-76
2021/08/13 06:40:25;;;;;;;4.20;1.70;;;;;;;21.46;58.27;99508.84;3374080;29;20059;-76
2021/08/13 06:42:07;;;;;;;3.37;2.03;;;;;;;21.49;58.45;99503.69;3376840;29;20116;-76
2021/08/13 06:43:49;;;;;;;7.82;1.95;;;;;;;21.48;58.14;99506.69;3364058;29;20300;-74
2021/08/13 06:45:30;;;;;;;2.77;1.43;;;;;;;21.46;58.03;99514.25;3377817;29;20504;-74
2021/08/13 06:47:18;;;;;;;3.60;1.98;;;;;;;21.38;58.23;99517.47;3376655;29;20670;-75
2021/08/13 06:49:00;;;;;;;;;;;;;;;21.42;58.18;99507.75;3374876;29;20052;-74
2021/08/13 06:50:41;;;;;;;2.47;1.70;;;;;;;21.35;58.36;99508.00;3374242;29;20001;-75
2021/08/13 06:52:22;;;;;;;6.53;1.63;;;;;;;21.33;58.43;99510.97;3374030;29;20052;-75
2021/08/13 06:54:03;;;;;;;6.93;1.90;;;;;;;21.31;58.22;99523.16;3372144;29;20542;-75
2021/08/13 06:55:44;;;;;;;1.73;1.52;;;;;;;21.29;58.67;99531.53;3375687;29;20139;-77
2021/08/13 06:57:25;;;;;;;4.03;1.57;;;;;;;21.32;58.70;99520.19;3376126;29;20041;-74
2021/08/13 06:59:06;;;;;;;5.32;2.20;;;;;;;21.39;58.74;99524.56;3376717;29;20051;-76
2021/08/13 07:00:47;;;;;;;1.67;1.30;;;;;;;21.45;58.93;99532.44;3377462;29;20412;-77
2021/08/13 07:02:27;;;;;;;2.30;2.10;;;;;;;21.54;58.89;99527.28;3372556;29;20041;-78
2021/08/13 07:04:08;;;;;;;5.37;1.77;;;;;;;21.64;58.95;99535.41;3370508;29;20041;-78
2021/08/13 07:05:49;;;;;;;5.23;1.93;;;;;;;21.70;58.55;99528.09;3373831;29;20045;-75
2021/08/13 07:07:31;;;;;;;2.78;1.90;;;;;;;21.71;58.38;99527.81;3376059;29;20135;-77
2021/08/13 07:09:12;;;;;;;2.50;1.55;;;;;;;21.73;58.17;99544.63;3373720;29;20436;-77
2021/08/13 07:10:53;;;;;;;4.47;1.77;;;;;;;21.72;58.22;99524.00;3372271;29;20044;-75
2021/08/13 07:12:44;;;;;;;7.77;2.53;;;;;;;21.75;57.95;99528.88;3362081;29;20145;-75
2021/08/13 07:14:25;;;;;;;4.87;1.60;;;;;;;21.80;57.90;99536.22;3362491;29;20517;-76
2021/08/13 07:16:06;;;;;;;3.20;1.85;;;;;;;21.82;57.81;99528.63;3361132;29;20424;-75
2021/08/13 07:17:48;;;;;;;5.35;1.85;;;;;;;21.87;57.77;99535.97;3361421;29;20053;-74
2021/08/13 07:19:34;;;;;;;7.07;1.98;;;;;;;21.87;58.02;99533.25;3365297;29;20053;-75
2021/08/13 07:21:17;;;;;;;7.82;2.50;;;;;;;21.88;57.86;99529.44;3368930;29;20078;-75
2021/08/13 07:23:11;;;;;;;8.70;2.22;;;;;;;21.88;57.78;99541.09;3362494;29;20168;-77
2021/08/13 07:24:52;;;;;;;4.80;2.30;;;;;;;21.87;57.68;99530.53;3372587;29;20045;-74
2021/08/13 07:26:33;;;;;;;2.87;2.03;;;;;;;21.86;57.88;99528.88;3373885;29;20425;-75
2021/08/13 07:28:14;;;;;;;2.83;1.60;;;;;;;21.95;57.72;99528.06;3372665;29;20137;-75
2021/08/13 07:29:58;;;;;;;4.63;1.92;;;;;;;22.10;57.54;99535.38;3367699;29;20412;-76
2021/08/13 07:31:39;;;;;;;;;;;;;;;22.28;57.30;99535.88;3370749;29;20049;-75
2021/08/13 07:33:21;;;;;;;8.48;1.48;;;;;;;22.36;56.86;99536.16;3375936;29;19923;-76
2021/08/13 07:35:03;;;;;;;4.37;1.67;;;;;;;22.47;56.62;99538.84;3360114;29;20497;-77
2021/08/13 07:36:50;;;;;;;5.80;1.73;;;;;;;22.54;56.44;99531.22;3361702;29;20508;-75
2021/08/13 07:38:39;;;;;;;4.60;1.70;;;;;;;22.68;56.37;99542.28;3362522;29;20516;-75
2021/08/13 07:40:20;;;;;;;9.00;1.80;;;;;;;22.80;56.27;99554.47;3361597;29;20104;-76
2021/08/13 07:42:04;;;;;;;6.45;1.88;;;;;;;22.90;55.74;99547.34;3372322;29;20044;-74
2021/08/13 07:43:45;;;;;;;2.05;1.85;;;;;;;22.97;55.44;99543.25;3360412;29;20045;-76
2021/08/13 07:45:27;;;;;;;6.85;1.75;;;;;;;22.98;55.33;99544.91;3373183;29;20055;-77
2021/08/13 07:47:08;;;;;;;6.13;2.23;;;;;;;23.05;55.35;99550.00;3375119;29;20053;-78
2021/08/13 07:48:49;;;;;;;4.03;1.77;;;;;;;23.04;55.13;99538.31;3375614;29;20052;-76
2021/08/13 07:50:31;;;;;;;3.75;1.92;;;;;;;23.11;54.78;99553.53;3375463;29;20428;-75
2021/08/13 07:52:13;;;;;;;8.30;2.08;;;;;;;23.15;54.72;99549.16;3362115;29;20045;-77
2021/08/13 07:53:54;;;;;;;10.80;2.27;;;;;;;23.16;54.92;99567.09;3370153;29;20055;-76
2021/08/13 07:55:37;;;;;;;9.30;1.98;;;;;;;23.10;54.83;99562.78;3358603;29;20056;-78
2021/08/13 07:57:18;;;;;;;2.93;1.70;;;;;;;23.00;54.74;99558.19;3368723;29;20037;-76
2021/08/13 07:58:59;;;;;;;5.68;2.05;;;;;;;22.89;54.89;99551.97;3372190;29;20048;-78
2021/08/13 08:00:43;;;;;;;5.78;1.95;;;;;;;22.83;55.05;99559.34;3372859;29;20606;-76
2021/08/13 08:02:24;;;;;;;11.55;2.88;;;;;;;22.78;54.78;99566.69;3375836;29;20040;-77
2021/08/13 08:04:04;;;;;;;3.07;2.00;;;;;;;22.69;54.73;99568.34;3375537;29;20071;-75
2021/08/13 08:05:47;;;;;;;4.32;2.60;;;;;;;22.56;54.90;99565.16;3375020;29;20109;-76